Time;durP1;ratioP1;P1;durP2;ratioP2;P2;SDS_P1;SDS_P2;PMS_P1;PMS_P2;Temp;Humidity;BMP_temperature;BMP_pressure;BME280_temperature;BME280_humidity;BME280_pressure;Samples;Min_cycle;Max_cycle;Signal;HPM_P1;HPM_P2
2022/05/30 00:00:53;;;;;;;1.95;0.52;;;;;;;8.84;100.00;100932.78;6224993;28;20045;-74
2022/05/30 00:03:55;;;;;;;0.85;0.65;;;;;;;8.88;100.00;100931.72;6225085;28;20413;-73
2022/05/30 00:06:58;;;;;;;2.00;0.55;;;;;;;8.92;100.00;100930.69;6225041;28;20092;-73
2022/05/30 00:09:59;;;;;;;2.67;0.70;;;;;;;8.94;100.00;100931.44;6225085;28;20224;-74
2022/05/30 00:13:01;;;;;;;1.33;0.32;;;;;;;8.96;100.00;100928.78;6225615;28;20057;-74
2022/05/30 00:16:04;;;;;;;2.25;0.70;;;;;;;8.97;100.00;100935.72;6224872;28;20061;-73
2022/05/30 00:19:05;;;;;;;7.20;0.65;;;;;;;8.94;100.00;100933.22;6225089;28;20046;-73
2022/05/30 00:22:11;;;;;;;1.40;0.57;;;;;;;8.87;100.00;100932.66;6224679;28;20045;-73
2022/05/30 00:25:12;;;;;;;0.45;0.40;;;;;;;8.87;100.00;100936.13;6224622;28;20057;-74
2022/05/30 00:28:16;;;;;;;1.20;0.50;;;;;;;8.86;100.00;100918.69;6223788;28;20414;-73
2022/05/30 00:31:19;;;;;;;1.48;0.57;;;;;;;8.83;100.00;100926.69;6224460;28;20053;-73
2022/05/30 00:34:21;;;;;;;2.75;0.63;;;;;;;8.87;100.00;100925.63;6223310;28;20061;-73
2022/05/30 00:37:25;;;;;;;1.02;0.82;;;;;;;8.85;100.00;100918.75;6224959;28;20053;-73
2022/05/30 00:40:27;;;;;;;2.10;0.57;;;;;;;8.87;100.00;100923.03;6224242;28;20061;-73
2022/05/30 00:43:31;;;;;;;2.50;0.45;;;;;;;8.87;100.00;100914.31;6224857;28;20061;-73
2022/05/30 00:46:32;;;;;;;1.75;0.65;;;;;;;8.88;100.00;100908.16;6224050;28;20056;-73
2022/05/30 00:49:35;;;;;;;0.35;0.35;;;;;;;8.88;100.00;100906.38;6224391;28;20052;-74
2022/05/30 00:52:42;;;;;;;2.38;0.60;;;;;;;8.89;100.00;100901.97;6224184;28;20054;-74
2022/05/30 00:55:44;;;;;;;0.98;0.45;;;;;;;8.89;100.00;100907.22;6223964;28;20050;-73
2022/05/30 00:58:48;;;;;;;1.42;0.73;;;;;;;8.83;100.00;100910.13;6224262;28;20057;-74
2022/05/30 01:01:49;;;;;;;0.80;0.45;;;;;;;8.80;100.00;100913.72;6223558;28;20054;-73
2022/05/30 01:08:11;;;;;;;;;;;;;;;8.83;100.00;100910.13;6224429;28;20077;-73
2022/05/30 01:11:13;;;;;;;1.50;0.52;;;;;;;8.85;100.00;100914.34;6223614;28;19929;-74
2022/05/30 01:14:14;;;;;;;0.35;0.35;;;;;;;8.86;100.00;100910.00;6223449;28;20054;-73
2022/05/30 01:17:17;;;;;;;2.15;0.40;;;;;;;8.87;100.00;100919.56;6223895;28;20140;-74
2022/05/30 01:20:29;;;;;;;5.45;1.02;;;;;;;8.91;100.00;100917.66;6223389;28;20061;-73
2022/05/30 01:23:45;;;;;;;0.50;0.50;;;;;;;8.88;100.00;100916.00;6223869;28;20050;-74
2022/05/30 01:27:01;;;;;;;0.60;0.38;;;;;;;8.88;100.00;100913.38;6223648;28;20046;-73
2022/05/30 01:30:07;;;;;;;1.55;0.63;;;;;;;8.82;100.00;100916.28;6223218;28;20049;-73
2022/05/30 01:33:08;;;;;;;7.68;1.48;;;;;;;8.77;100.00;100918.25;6223063;28;20490;-73
2022/05/30 01:36:10;;;;;;;1.17;0.60;;;;;;;8.77;100.00;100913.00;6223056;28;20061;-73
2022/05/30 01:39:11;;;;;;;1.10;0.55;;;;;;;8.70;100.00;100917.66;6222954;28;20045;-73
2022/05/30 01:42:13;;;;;;;1.83;0.50;;;;;;;8.69;100.00;100917.72;6223340;28;20050;-74
2022/05/30 01:45:16;;;;;;;2.25;0.68;;;;;;;8.69;100.00;100912.47;6222555;28;20056;-73
2022/05/30 01:48:17;;;;;;;2.53;0.60;;;;;;;8.68;100.00;100913.41;6223097;28;20060;-74
2022/05/30 01:51:21;;;;;;;1.98;0.60;;;;;;;8.65;100.00;100909.13;6222509;28;20056;-73
2022/05/30 01:54:22;;;;;;;2.38;0.63;;;;;;;8.66;100.00;100900.34;6222820;28;20050;-73
2022/05/30 01:57:24;;;;;;;0.90;0.55;;;;;;;8.68;100.00;100901.16;6222981;28;20053;-73
2022/05/30 02:00:26;;;;;;;2.15;0.70;;;;;;;8.74;100.00;100907.91;6222473;28;20417;-73
2022/05/30 02:03:30;;;;;;;2.58;0.73;;;;;;;8.80;100.00;100903.22;6222559;28;20061;-73
2022/05/30 02:06:34;;;;;;;2.10;0.82;;;;;;;8.79;100.00;100908.53;6222241;28;20053;-73
2022/05/30 02:09:35;;;;;;;3.55;1.33;;;;;;;8.74;100.00;100908.75;6222663;28;20053;-73
2022/05/30 02:12:37;;;;;;;4.72;0.88;;;;;;;8.72;100.00;100904.47;6222461;28;20501;-73
2022/05/30 02:18:57;;;;;;;2.10;0.60;;;;;;;8.70;100.00;100912.41;6219706;28;20050;-72
2022/05/30 02:21:58;;;;;;;3.60;1.08;;;;;;;8.72;100.00;100910.59;6222018;28;20057;-73
2022/05/30 02:25:00;;;;;;;1.30;0.68;;;;;;;8.77;100.00;100923.50;6222062;28;20054;-73
2022/05/30 02:28:01;;;;;;;0.70;0.70;;;;;;;8.76;100.00;100913.91;6222099;28;20049;-73
2022/05/30 02:31:04;;;;;;;7.25;1.77;;;;;;;8.75;100.00;100913.06;6221822;28;20042;-73
2022/05/30 02:37:25;;;;;;;4.03;1.13;;;;;;;8.68;100.00;100911.63;6222420;28;20046;-73
2022/05/30 02:40:26;;;;;;;8.02;0.93;;;;;;;8.66;100.00;100920.47;6221623;28;20038;-73
2022/05/30 02:43:27;;;;;;;7.07;1.38;;;;;;;8.66;100.00;100923.94;6222216;28;20429;-73
2022/05/30 02:46:30;;;;;;;1.55;1.08;;;;;;;8.62;100.00;100922.34;6221666;28;20057;-73
2022/05/30 02:49:32;;;;;;;3.05;1.27;;;;;;;8.60;100.00;100909.34;6223215;28;20042;-73
2022/05/30 02:52:33;;;;;;;1.60;0.93;;;;;;;8.62;100.00;100917.13;6226769;28;20184;-73
2022/05/30 02:55:35;;;;;;;3.53;1.35;;;;;;;8.66;100.00;100909.97;6226918;28;20057;-73
2022/05/30 02:58:36;;;;;;;1.70;1.00;;;;;;;8.68;100.00;100910.78;6226529;28;20053;-73
2022/05/30 03:01:39;;;;;;;1.52;0.68;;;;;;;8.67;100.00;100912.53;6226769;28;20049;-73
2022/05/30 03:04:40;;;;;;;3.75;1.10;;;;;;;8.71;100.00;100918.50;6224511;28;20049;-74
2022/05/30 03:07:41;;;;;;;1.70;1.15;;;;;;;8.64;100.00;100912.69;6226942;28;20050;-73
2022/05/30 03:10:43;;;;;;;3.28;0.90;;;;;;;8.63;100.00;100917.06;6226311;28;20042;-73
2022/05/30 03:13:44;;;;;;;1.23;0.88;;;;;;;8.66;100.00;100907.38;6226344;28;20050;-73
2022/05/30 03:16:47;;;;;;;3.90;2.00;;;;;;;8.68;100.00;100916.03;6226958;28;20053;-74
2022/05/30 03:19:51;;;;;;;3.20;1.08;;;;;;;8.64;100.00;100915.31;6226052;28;20662;-73
2022/05/30 03:22:52;;;;;;;2.05;0.90;;;;;;;8.68;100.00;100916.88;6226581;28;20054;-73
2022/05/30 03:25:53;;;;;;;5.38;1.30;;;;;;;8.73;100.00;100912.28;6225815;28;20085;-73
2022/05/30 03:28:55;;;;;;;5.25;1.20;;;;;;;8.71;100.00;100915.88;6226466;28;20536;-73
2022/05/30 03:31:57;;;;;;;1.92;1.08;;;;;;;8.69;100.00;100917.72;6225643;28;20050;-73
2022/05/30 03:34:59;;;;;;;4.75;2.25;;;;;;;8.64;100.00;100918.78;6226191;28;20057;-73
2022/05/30 03:38:01;;;;;;;5.07;1.52;;;;;;;8.64;100.00;100916.16;6226232;28;20140;-73
2022/05/30 03:41:02;;;;;;;4.35;1.48;;;;;;;8.68;100.00;100927.34;6225521;28;20437;-73
2022/05/30 03:44:04;;;;;;;4.45;1.48;;;;;;;8.75;100.00;100925.31;6225329;28;20053;-74
2022/05/30 03:47:08;;;;;;;1.55;0.85;;;;;;;8.80;100.00;100923.34;6225437;28;20046;-72
2022/05/30 03:50:12;;;;;;;1.08;0.80;;;;;;;8.81;100.00;100928.53;6224201;28;20061;-73
2022/05/30 03:53:14;;;;;;;3.08;1.40;;;;;;;8.79;100.00;100926.88;6225401;28;20402;-73
2022/05/30 03:56:16;;;;;;;7.10;1.33;;;;;;;8.78;100.00;100925.19;6225101;28;20042;-74
2022/05/30 03:59:17;;;;;;;2.35;1.00;;;;;;;8.79;100.00;100929.50;6224107;28;20046;-73
2022/05/30 04:02:20;;;;;;;2.30;1.35;;;;;;;8.72;100.00;100925.44;6223765;28;20053;-73
2022/05/30 04:05:22;;;;;;;1.98;1.10;;;;;;;8.72;100.00;100925.44;6223132;28;20520;-73
2022/05/30 04:08:23;;;;;;;3.65;1.23;;;;;;;8.73;100.00;100927.16;6224030;28;20060;-73
2022/05/30 04:11:24;;;;;;;2.08;1.30;;;;;;;8.69;100.00;100923.81;6223323;28;20497;-74
2022/05/30 04:14:26;;;;;;;2.95;1.20;;;;;;;8.69;100.00;100921.19;6223452;28;20464;-73
2022/05/30 04:17:29;;;;;;;5.85;1.42;;;;;;;8.74;100.00;100921.84;6223608;28;20411;-74
2022/05/30 04:20:30;;;;;;;5.90;1.45;;;;;;;8.76;100.00;100932.25;6223275;28;20050;-73
2022/05/30 04:23:31;;;;;;;9.50;1.70;;;;;;;8.78;100.00;100933.06;6225111;28;20054;-74
2022/05/30 04:26:33;;;;;;;3.40;1.17;;;;;;;8.83;100.00;100933.69;6224487;28;20433;-74
2022/05/30 04:29:35;;;;;;;2.72;1.00;;;;;;;8.85;100.00;100934.47;6225088;28;20050;-73
2022/05/30 04:32:37;;;;;;;4.07;1.67;;;;;;;8.82;100.00;100940.72;6224524;28;20049;-74
2022/05/30 04:35:40;;;;;;;3.00;1.10;;;;;;;8.83;100.00;100942.41;6224332;28;20045;-73
2022/05/30 04:38:41;;;;;;;8.13;2.55;;;;;;;8.84;100.00;100945.88;6224802;28;20053;-73
2022/05/30 04:41:43;;;;;;;7.05;1.10;;;;;;;8.88;100.00;100932.56;6224589;28;20057;-73
2022/05/30 04:44:44;;;;;;;4.05;1.58;;;;;;;8.89;100.00;100930.81;6224122;28;20049;-73
2022/05/30 04:47:48;;;;;;;1.15;1.00;;;;;;;8.85;100.00;100937.09;6224889;28;20045;-74
2022/05/30 04:50:49;;;;;;;4.97;1.52;;;;;;;8.88;100.00;100936.97;6224095;28;20049;-74
2022/05/30 04:53:51;;;;;;;3.35;1.58;;;;;;;8.92;100.00;100945.56;6224047;28;20058;-73
2022/05/30 04:56:53;;;;;;;3.85;1.50;;;;;;;8.95;100.00;100946.28;6222904;28;20041;-73
2022/05/30 04:59:54;;;;;;;6.45;1.50;;;;;;;8.89;100.00;100946.53;6222047;28;20545;-74
2022/05/30 05:02:57;;;;;;;4.05;1.02;;;;;;;8.89;100.00;100951.78;6222687;28;20118;-73
2022/05/30 05:06:02;;;;;;;5.13;1.20;;;;;;;8.96;100.00;100953.22;6221893;28;20057;-73
2022/05/30 05:09:06;;;;;;;5.45;1.33;;;;;;;9.02;100.00;100952.09;6222222;28;20445;-73
2022/05/30 05:12:07;;;;;;;4.03;1.23;;;;;;;9.02;100.00;100952.09;6221307;28;20046;-73
2022/05/30 05:15:09;;;;;;;4.68;1.20;;;;;;;8.98;100.00;100963.63;6222060;28;20045;-74
2022/05/30 05:18:11;;;;;;;0.82;0.80;;;;;;;9.00;100.00;100959.19;6222160;28;20042;-73
2022/05/30 05:21:19;;;;;;;2.55;1.17;;;;;;;9.05;100.00;100957.22;6222152;28;20042;-73
2022/05/30 05:24:20;;;;;;;1.85;0.90;;;;;;;9.08;100.00;100963.19;6219087;28;20072;-74
2022/05/30 05:27:21;;;;;;;2.85;1.10;;;;;;;9.14;100.00;100965.53;6222485;28;20061;-74
2022/05/30 05:30:23;;;;;;;4.28;1.30;;;;;;;9.18;100.00;100963.63;6222333;28;20041;-73
2022/05/30 05:33:25;;;;;;;2.35;0.77;;;;;;;9.26;100.00;100966.75;6223404;28;20060;-73
2022/05/30 05:36:29;;;;;;;6.43;1.00;;;;;;;9.32;100.00;100968.25;6223134;28;20056;-74
2022/05/30 05:39:30;;;;;;;1.00;0.52;;;;;;;9.37;100.00;100968.91;6223476;28;20504;-73
2022/05/30 05:42:31;;;;;;;1.30;0.75;;;;;;;9.36;100.00;100968.06;6220802;28;20078;-73
2022/05/30 05:45:33;;;;;;;0.82;0.70;;;;;;;9.33;100.00;100969.97;6222638;28;20049;-73
2022/05/30 05:48:36;;;;;;;1.67;1.02;;;;;;;9.35;100.00;100971.56;6223023;28;20057;-74
2022/05/30 05:51:39;;;;;;;1.85;0.93;;;;;;;9.38;100.00;100976.69;6222719;28;20053;-73
2022/05/30 05:54:40;;;;;;;1.80;0.90;;;;;;;9.43;100.00;100975.63;6214681;28;20045;-73
2022/05/30 05:57:41;;;;;;;2.17;0.73;;;;;;;9.40;100.00;100972.25;6223110;28;20543;-73
2022/05/30 06:00:43;;;;;;;0.88;0.70;;;;;;;9.44;100.00;100979.97;6222576;28;20054;-74
2022/05/30 06:03:45;;;;;;;1.83;0.68;;;;;;;9.45;100.00;100979.03;6222580;28;20046;-74
2022/05/30 06:06:47;;;;;;;4.78;0.95;;;;;;;9.45;100.00;100985.16;6222320;28;20053;-74
2022/05/30 06:09:48;;;;;;;3.13;0.90;;;;;;;9.48;100.00;100992.88;6222595;28;20058;-73
2022/05/30 06:12:50;;;;;;;0.70;0.60;;;;;;;9.52;100.00;100991.81;6222902;28;20053;-73
2022/05/30 06:15:51;;;;;;;4.50;1.58;;;;;;;9.57;100.00;100988.97;6222169;28;20060;-74
2022/05/30 06:18:57;;;;;;;0.40;0.40;;;;;;;9.58;100.00;100991.56;6223011;28;20682;-74
2022/05/30 06:21:59;;;;;;;0.50;0.50;;;;;;;9.64;100.00;101000.91;6222217;28;20065;-73
2022/05/30 06:25:00;;;;;;;5.47;0.95;;;;;;;9.71;100.00;100994.44;6221546;28;20050;-73
2022/05/30 06:28:01;;;;;;;3.00;0.52;;;;;;;9.76;100.00;101000.34;6222487;28;20062;-74
2022/05/30 06:31:07;;;;;;;1.38;0.80;;;;;;;9.72;100.00;101000.53;6221961;28;20053;-74
2022/05/30 06:34:09;;;;;;;2.15;0.70;;;;;;;9.72;100.00;100995.28;6221550;28;20114;-74
2022/05/30 06:37:11;;;;;;;1.20;0.63;;;;;;;9.77;100.00;100996.81;6222342;28;20052;-73
2022/05/30 06:40:14;;;;;;;1.13;0.70;;;;;;;9.79;100.00;100989.72;6222131;28;20137;-73
2022/05/30 06:43:16;;;;;;;0.40;0.40;;;;;;;9.81;100.00;100994.88;6222677;28;20054;-74
2022/05/30 06:46:17;;;;;;;0.47;0.35;;;;;;;9.87;100.00;100997.25;6222097;28;20045;-74
2022/05/30 06:49:20;;;;;;;2.58;0.52;;;;;;;9.80;100.00;101001.06;6222172;28;20058;-74
2022/05/30 06:52:21;;;;;;;0.88;0.68;;;;;;;9.87;100.00;100995.47;6221971;28;20416;-75
2022/05/30 06:55:22;;;;;;;0.90;0.55;;;;;;;9.94;100.00;100997.78;6221699;28;20472;-73
2022/05/30 06:58:24;;;;;;;7.05;0.73;;;;;;;10.00;100.00;101000.16;6222283;28;20046;-73
2022/05/30 07:01:29;;;;;;;3.28;1.33;;;;;;;10.08;100.00;101004.13;6221411;28;20053;-73
2022/05/30 07:04:32;;;;;;;3.75;1.08;;;;;;;10.15;100.00;101002.03;6221930;28;20061;-74
2022/05/30 07:07:34;;;;;;;0.43;0.43;;;;;;;10.18;100.00;100998.44;6222076;28;20056;-73
2022/05/30 07:10:37;;;;;;;2.47;0.68;;;;;;;10.22;100.00;101006.09;6221428;28;20072;-73
2022/05/30 07:13:39;;;;;;;4.97;0.80;;;;;;;10.27;100.00;101008.53;6221394;28;20046;-73
2022/05/30 07:16:40;;;;;;;0.28;0.28;;;;;;;10.34;100.00;101008.13;6213202;28;20460;-73
2022/05/30 07:19:43;;;;;;;0.68;0.60;;;;;;;10.27;97.70;101009.38;6221500;28;20077;-74
2022/05/30 07:22:44;;;;;;;0.63;0.45;;;;;;;10.28;98.18;101008.44;6221672;28;20085;-74
2022/05/30 07:25:46;;;;;;;1.20;0.40;;;;;;;10.30;99.65;101011.84;6221849;28;20508;-73
2022/05/30 07:28:47;;;;;;;2.28;0.40;;;;;;;10.42;99.45;101013.03;6221439;28;20663;-74
2022/05/30 07:31:48;;;;;;;0.40;0.40;;;;;;;10.50;98.59;101002.16;6221276;28;20490;-74
2022/05/30 07:34:51;;;;;;;5.15;0.40;;;;;;;10.56;96.80;101000.06;6221136;28;20057;-74
2022/05/30 07:37:52;;;;;;;0.88;0.45;;;;;;;10.59;96.89;101006.97;6226407;28;20512;-74
2022/05/30 07:40:54;;;;;;;3.40;0.50;;;;;;;10.65;97.66;101014.53;6226063;28;20049;-74
2022/05/30 07:43:55;;;;;;;3.63;0.82;;;;;;;10.63;93.11;101011.16;6221991;28;20516;-74
2022/05/30 07:46:56;;;;;;;1.88;0.65;;;;;;;10.71;93.22;101013.38;6226021;28;20046;-74
2022/05/30 07:50:02;;;;;;;0.47;0.47;;;;;;;10.85;91.31;101009.13;6225552;28;20053;-75
2022/05/30 07:53:04;;;;;;;2.25;0.57;;;;;;;10.89;89.87;101002.78;6225990;28;20054;-73
2022/05/30 07:56:06;;;;;;;2.05;0.50;;;;;;;10.94;90.95;101005.19;6225190;28;20509;-75
2022/05/30 07:59:08;;;;;;;0.95;0.50;;;;;;;10.96;94.53;101007.75;6225661;28;20411;-75
2022/05/30 08:02:09;;;;;;;1.48;0.40;;;;;;;10.89;89.12;101012.47;6224784;28;20046;-74
2022/05/30 08:05:13;;;;;;;1.50;0.40;;;;;;;10.83;89.34;101011.00;6226785;28;20080;-74
2022/05/30 08:08:16;;;;;;;1.02;0.47;;;;;;;10.85;90.23;101010.91;6225279;28;20050;-75
2022/05/30 08:11:18;;;;;;;5.20;0.90;;;;;;;10.86;91.11;101007.38;6224916;28;20042;-74
2022/05/30 08:14:20;;;;;;;0.40;0.40;;;;;;;10.95;92.56;101009.53;6224892;28;20099;-74
2022/05/30 08:17:21;;;;;;;0.65;0.60;;;;;;;10.86;88.97;101002.13;6225421;28;20049;-74
2022/05/30 08:20:25;;;;;;;2.95;0.77;;;;;;;10.93;92.14;101014.00;6224912;28;20057;-75
2022/05/30 08:23:27;;;;;;;1.25;0.45;;;;;;;11.00;92.53;101010.16;6224923;28;20056;-74
2022/05/30 08:26:29;;;;;;;1.75;1.13;;;;;;;11.05;92.39;101012.53;6224477;28;20151;-74
2022/05/30 08:29:30;;;;;;;2.05;0.60;;;;;;;11.13;92.96;101020.91;6224806;28;20050;-75
2022/05/30 08:32:33;;;;;;;0.80;0.52;;;;;;;11.12;90.88;101027.91;6224452;28;20052;-75
2022/05/30 08:35:37;;;;;;;1.05;0.57;;;;;;;11.09;88.76;101028.09;6221978;28;20109;-74
2022/05/30 08:38:40;;;;;;;1.38;0.60;;;;;;;11.16;87.08;101024.19;6225043;28;20144;-74
2022/05/30 08:41:46;;;;;;;0.77;0.50;;;;;;;11.33;88.22;101025.13;6223854;28;20050;-75
2022/05/30 08:44:48;;;;;;;0.30;0.30;;;;;;;11.38;87.39;101018.69;6223993;28;20111;-74
2022/05/30 08:47:52;;;;;;;3.78;0.60;;;;;;;11.42;87.79;101027.28;6223483;28;20053;-74
2022/05/30 08:51:10;;;;;;;1.25;0.43;;;;;;;11.35;84.60;101025.88;6224125;28;20072;-72
2022/05/30 08:54:29;;;;;;;1.08;0.40;;;;;;;11.24;85.73;101034.34;6223753;28;20417;-73
2022/05/30 08:57:41;;;;;;;;;;;;;;;11.19;86.60;101033.72;6224480;28;20437;-74
2022/05/30 09:00:52;;;;;;;0.30;0.30;;;;;;;11.26;89.26;101029.00;6223660;28;20146;-73
2022/05/30 09:04:10;;;;;;;2.55;0.90;;;;;;;11.38;89.96;101028.34;6223715;28;20061;-73
2022/05/30 09:07:16;;;;;;;0.63;0.55;;;;;;;11.39;86.16;101030.91;6223765;28;20179;-74
2022/05/30 09:10:24;;;;;;;0.40;0.40;;;;;;;11.32;85.69;101023.44;6224101;28;20057;-74
2022/05/30 09:13:30;;;;;;;1.20;0.50;;;;;;;11.30;88.40;101025.28;6223521;28;20559;-73
2022/05/30 09:16:37;;;;;;;0.73;0.30;;;;;;;11.17;84.99;101030.31;6221245;28;20053;-74
2022/05/30 09:19:40;;;;;;;0.65;0.30;;;;;;;11.08;86.89;101031.66;6219818;28;20046;-74
2022/05/30 09:22:43;;;;;;;1.15;0.47;;;;;;;10.99;86.64;101031.25;6199432;28;20082;-74
2022/05/30 09:26:00;;;;;;;3.22;0.50;;;;;;;10.96;88.04;101031.41;6213845;28;20056;-74
2022/05/30 09:29:04;;;;;;;0.90;0.30;;;;;;;10.90;87.89;101036.06;6218324;28;20486;-74
2022/05/30 09:32:15;;;;;;;3.03;0.40;;;;;;;10.92;88.54;101047.34;6222651;28;20528;-74
2022/05/30 09:35:24;;;;;;;0.45;0.40;;;;;;;10.92;87.83;101044.72;6221938;28;20447;-74
2022/05/30 09:38:27;;;;;;;0.20;0.20;;;;;;;10.97;90.07;101055.00;6222916;28;20460;-73
2022/05/30 09:41:47;;;;;;;2.00;0.90;;;;;;;10.98;88.89;101051.44;6222999;28;20049;-74
2022/05/30 09:44:53;;;;;;;0.68;0.40;;;;;;;11.00;89.28;101054.84;6221869;28;20524;-73
2022/05/30 09:48:02;;;;;;;1.33;0.55;;;;;;;11.07;87.04;101052.75;6221611;28;20498;-74
2022/05/30 09:51:03;;;;;;;;;;;;;;;11.18;83.95;101050.44;6225028;28;20056;-73
2022/05/30 09:54:08;;;;;;;0.45;0.43;;;;;;;11.24;84.28;101050.13;6222373;28;19921;-73
2022/05/30 09:57:16;;;;;;;1.75;0.45;;;;;;;11.34;81.51;101056.59;6223041;28;20049;-73
2022/05/30 10:00:20;;;;;;;0.50;0.50;;;;;;;11.48;83.02;101052.41;6222519;28;20435;-74
2022/05/30 10:03:31;;;;;;;1.55;0.40;;;;;;;11.66;84.40;101056.72;6222454;28;20065;-73
2022/05/30 10:06:32;;;;;;;0.30;0.30;;;;;;;11.80;80.42;101048.06;6231787;28;20072;-73
2022/05/30 10:09:41;;;;;;;0.30;0.30;;;;;;;11.75;81.22;101052.75;6229431;28;20456;-74
2022/05/30 10:12:52;;;;;;;2.60;0.57;;;;;;;11.67;83.41;101056.66;6235588;28;20069;-74
2022/05/30 10:15:57;;;;;;;1.10;0.60;;;;;;;11.53;85.83;101053.03;6223427;28;20050;-74
2022/05/30 10:19:01;;;;;;;0.70;0.55;;;;;;;11.40;85.82;101061.56;6222823;28;20077;-74
2022/05/30 10:29:16;;;;;;;1.35;0.38;;;;;;;11.16;85.18;101065.44;6222526;28;20054;-74
2022/05/30 10:32:26;;;;;;;0.60;0.43;;;;;;;11.15;83.57;101069.00;6221809;28;20437;-74
2022/05/30 10:35:35;;;;;;;0.60;0.60;;;;;;;11.18;82.80;101072.34;6221569;28;20054;-73
2022/05/30 10:38:50;;;;;;;0.73;0.52;;;;;;;11.25;81.33;101066.75;6222183;28;20054;-73
2022/05/30 10:41:56;;;;;;;0.30;0.30;;;;;;;11.37;80.97;101074.03;6206786;28;20049;-73
2022/05/30 10:45:02;;;;;;;3.92;0.40;;;;;;;11.42;82.57;101070.22;6221572;28;20540;-74
2022/05/30 10:48:10;;;;;;;2.83;0.38;;;;;;;11.43;81.91;101076.34;6221998;28;20657;-73
2022/05/30 10:51:17;;;;;;;2.63;0.50;;;;;;;11.48;80.91;101078.72;6221568;28;20649;-74
2022/05/30 10:54:24;;;;;;;0.85;0.30;;;;;;;11.59;79.82;101079.88;6221570;28;20045;-73
2022/05/30 10:57:35;;;;;;;2.30;1.40;;;;;;;11.66;79.69;101075.97;6223523;28;20410;-73
2022/05/30 11:00:45;;;;;;;2.38;1.40;;;;;;;11.72;79.88;101081.84;6228285;28;20054;-74
2022/05/30 11:03:53;;;;;;;2.38;0.47;;;;;;;11.91;82.03;101077.38;6214214;28;20057;-73
2022/05/30 11:06:59;;;;;;;0.38;0.30;;;;;;;12.05;79.68;101087.16;6229863;28;20050;-74
2022/05/30 11:10:07;;;;;;;1.98;0.40;;;;;;;12.16;78.24;101079.50;6221229;28;20057;-74
2022/05/30 11:13:20;;;;;;;3.00;0.70;;;;;;;12.37;78.85;101077.50;6226741;28;20489;-74
2022/05/30 11:16:34;;;;;;;0.80;0.50;;;;;;;12.68;78.72;101074.84;6226074;28;20046;-74
2022/05/30 11:19:49;;;;;;;2.80;0.73;;;;;;;12.84;75.68;101072.16;6226762;28;20046;-74
2022/05/30 11:22:52;;;;;;;0.40;0.40;;;;;;;12.85;75.18;101081.78;6226501;28;20492;-74
2022/05/30 11:26:11;;;;;;;3.92;0.63;;;;;;;12.84;77.16;101092.41;6225482;28;20056;-74
2022/05/30 11:29:30;;;;;;;0.55;0.50;;;;;;;12.68;74.82;101088.03;6218438;28;20053;-74
2022/05/30 11:32:51;;;;;;;1.13;0.40;;;;;;;12.50;74.73;101090.84;6225482;28;20053;-74
2022/05/30 11:36:04;;;;;;;0.60;0.38;;;;;;;12.37;77.74;101088.88;6223600;28;20049;-73
2022/05/30 11:39:17;;;;;;;1.42;0.47;;;;;;;12.23;79.89;101094.06;6221353;28;20409;-74
2022/05/30 11:42:30;;;;;;;0.52;0.40;;;;;;;12.15;80.26;101091.00;6225599;28;20509;-74
2022/05/30 11:45:51;;;;;;;0.40;0.30;;;;;;;12.05;81.26;101093.28;6225290;28;20050;-73
2022/05/30 11:48:59;;;;;;;1.08;0.43;;;;;;;12.01;81.74;101091.75;6226090;28;20046;-74
2022/05/30 11:52:19;;;;;;;0.30;0.30;;;;;;;12.01;80.95;101094.38;6225696;28;20050;-74
2022/05/30 11:55:25;;;;;;;1.15;0.70;;;;;;;12.02;80.77;101090.78;6225247;28;20058;-74
2022/05/30 11:58:57;;;;;;;2.63;0.40;;;;;;;11.96;79.83;101085.88;6226316;28;20046;-74
2022/05/30 12:02:04;;;;;;;0.80;0.45;;;;;;;11.97;78.46;101086.72;6225213;28;20062;-73
2022/05/30 12:05:37;;;;;;;6.00;0.52;;;;;;;12.05;80.12;101092.44;6225069;28;20430;-73
2022/05/30 12:09:09;;;;;;;0.30;0.30;;;;;;;12.09;80.50;101088.69;6201220;28;20053;-76
2022/05/30 12:12:33;;;;;;;2.00;1.02;;;;;;;12.15;78.71;101094.47;6200607;28;20054;-74
2022/05/30 12:16:07;;;;;;;0.75;0.50;;;;;;;12.11;78.17;101095.56;6222915;28;20053;-74
2022/05/30 12:26:13;;;;;;;;;;;;;;;12.32;72.29;101092.72;6222963;28;20049;-75
2022/05/30 12:29:31;;;;;;;0.28;0.28;;;;;;;12.38;71.89;101095.00;6220529;28;19921;-74
2022/05/30 12:32:47;;;;;;;5.32;0.60;;;;;;;12.49;72.34;101092.63;6223392;28;20050;-75
2022/05/30 12:36:28;;;;;;;0.50;0.40;;;;;;;12.67;72.85;101093.34;6231482;28;20424;-75
2022/05/30 12:39:34;;;;;;;0.40;0.40;;;;;;;12.78;71.08;101103.31;6224382;28;20065;-75
2022/05/30 12:42:39;;;;;;;0.82;0.50;;;;;;;12.89;71.70;101100.91;6224450;28;20050;-75
2022/05/30 12:45:44;;;;;;;1.23;0.43;;;;;;;12.83;72.08;101091.56;6224150;28;20076;-75
2022/05/30 12:49:00;;;;;;;0.68;0.40;;;;;;;12.89;73.85;101093.84;6226685;28;20145;-75
2022/05/30 12:52:14;;;;;;;0.50;0.50;;;;;;;12.85;74.66;101109.94;6223681;28;20049;-75
2022/05/30 12:55:33;;;;;;;2.33;0.30;;;;;;;12.95;74.42;101101.41;6224030;28;20064;-74
2022/05/30 12:59:04;;;;;;;1.40;1.07;;;;;;;12.92;68.92;101104.22;6224346;28;20046;-75
2022/05/30 13:02:06;;;;;;;0.82;0.43;;;;;;;12.94;67.67;101102.38;6223849;28;20065;-75
2022/05/30 13:05:18;;;;;;;2.35;0.38;;;;;;;12.97;69.35;101096.03;6223784;28;20049;-78
2022/05/30 13:08:59;;;;;;;0.93;0.50;;;;;;;13.02;66.39;101107.19;6223625;28;20060;-74
2022/05/30 13:12:18;;;;;;;0.20;0.20;;;;;;;13.04;68.01;101109.75;6221610;28;20128;-74
2022/05/30 13:15:26;;;;;;;0.63;0.30;;;;;;;13.12;66.45;101113.63;6223574;28;20098;-74
2022/05/30 13:18:28;;;;;;;0.20;0.20;;;;;;;13.32;67.12;101114.28;6224330;28;20061;-76
2022/05/30 13:21:30;;;;;;;0.10;0.10;;;;;;;13.60;66.20;101111.69;6223544;28;20296;-75
2022/05/30 13:24:33;;;;;;;0.77;0.20;;;;;;;14.06;66.59;101113.34;6223471;28;20046;-75
2022/05/30 13:27:36;;;;;;;0.52;0.47;;;;;;;14.15;60.93;101107.47;6223443;28;20426;-74
2022/05/30 13:30:39;;;;;;;0.63;0.40;;;;;;;13.95;62.85;101114.00;6223520;28;20049;-73
2022/05/30 13:33:43;;;;;;;0.32;0.30;;;;;;;13.78;61.88;101103.63;6215769;28;20049;-73
2022/05/30 13:36:44;;;;;;;0.75;0.50;;;;;;;13.54;64.28;101105.97;6222592;28;20476;-73
2022/05/30 13:39:46;;;;;;;0.30;0.30;;;;;;;13.25;64.11;101107.66;6222659;28;20136;-73
2022/05/30 13:42:52;;;;;;;1.30;0.75;;;;;;;13.14;66.29;101103.84;6222799;28;20460;-73
2022/05/30 13:45:53;;;;;;;0.95;0.55;;;;;;;13.03;68.97;101114.16;6222527;28;20050;-73
2022/05/30 13:48:55;;;;;;;0.30;0.30;;;;;;;12.92;69.80;101108.66;6223782;28;20421;-72
2022/05/30 13:51:58;;;;;;;0.68;0.40;;;;;;;12.88;73.03;101115.03;6222675;28;20140;-72
2022/05/30 13:55:05;;;;;;;2.28;0.60;;;;;;;12.84;74.06;101116.16;6221313;28;20076;-73
2022/05/30 13:58:07;;;;;;;0.63;0.45;;;;;;;12.89;75.18;101114.94;6223434;28;20061;-77
2022/05/30 14:01:14;;;;;;;1.52;0.70;;;;;;;12.97;74.43;101116.31;6222573;28;20098;-73
2022/05/30 14:04:22;;;;;;;0.65;0.50;;;;;;;13.07;76.95;101115.69;6222629;28;20050;-73
2022/05/30 14:07:26;;;;;;;1.10;0.43;;;;;;;13.16;74.06;101122.22;6222623;28;20049;-74
2022/05/30 14:10:28;;;;;;;0.60;0.40;;;;;;;13.28;74.01;101112.78;6222467;28;20049;-73
2022/05/30 14:13:35;;;;;;;0.93;0.63;;;;;;;13.44;71.33;101117.06;6222079;28;20045;-72
2022/05/30 14:16:39;;;;;;;0.73;0.45;;;;;;;13.73;69.95;101116.25;6222290;28;20097;-74
2022/05/30 14:19:43;;;;;;;0.77;0.77;;;;;;;13.92;68.35;101111.53;6222184;28;20058;-73
2022/05/30 14:22:52;;;;;;;1.58;0.50;;;;;;;14.15;66.49;101120.69;6222632;28;20515;-73
2022/05/30 14:25:55;;;;;;;0.45;0.45;;;;;;;14.25;66.52;101115.66;6222022;28;20050;-74
2022/05/30 14:29:01;;;;;;;0.90;0.52;;;;;;;14.12;67.10;101121.72;6222586;28;20057;-75
2022/05/30 14:32:14;;;;;;;1.05;0.35;;;;;;;14.14;65.00;101119.00;6222149;28;20050;-75
2022/05/30 14:35:26;;;;;;;0.55;0.47;;;;;;;14.36;62.08;101123.78;6222679;28;20072;-77
2022/05/30 14:38:43;;;;;;;1.00;0.30;;;;;;;14.39;62.62;101121.78;6222312;28;20054;-75
2022/05/30 14:41:53;;;;;;;0.82;0.45;;;;;;;14.58;61.72;101121.50;6220960;28;20057;-75
2022/05/30 14:45:03;;;;;;;0.40;0.40;;;;;;;14.96;59.43;101116.38;6220690;28;20459;-76
2022/05/30 14:48:08;;;;;;;0.20;0.20;;;;;;;15.13;66.39;101119.72;6222259;28;20060;-75